Apple Creek, MO

4:09 AM CDT on May 30, 2015 (GMT -0500)
Northwest Jackson | | Change Station
CLOSE
Current Station
Personal Weather Station
Location: Jackson, MO
Elevation: 465 ft
Nearby Weather Stations

Elev 465 ft 37.39 °N, 89.68 °W | Updated 3 seconds ago

Mostly Cloudy
Mostly Cloudy
72.7 °F
Feels Like 75 °F
N
0.0
Wind Variable Wind from NW
Gusts 0.0 mph

Today
High -- | Low -- °F
--% Chance of Precip.
Yesterday
High -- | Low -- °F
Precip. -- in
5:40 AM 8:12 PM
Waxing Gibbous, 89% visible
Pressure 29.94 in
Visibility 10.0 miles
Clouds Mostly Cloudy 2400 ft
Overcast 11000 ft
Heat Index 75 °F
Dew Point 62 °F
Humidity 68%
Rainfall 0.00 in
Snow Depth Not available.
UV 0 out of 12
Pollen 7.50 out of 12
Air Quality Not available.
Flu Activity Sporadic
METAR KCGI 300853Z AUTO 18007KT 10SM BKN024 OVC110 23/21 A2995 RMK AO2 SLP139 T02280206 55008 TSNO

More Conditions Fewer Conditions

Pressure 29.94 in
Visibility 10.0 miles
Clouds Mostly Cloudy 2400 ft
Overcast 11000 ft
Heat Index 75 °F
Dew Point 62 °F
Humidity 68%
Rainfall 0.00 in
Snow Depth Not available.
UV 0 out of 12
Pollen 7.50 out of 12
Air Quality Not available.
Flu Activity Sporadic
METAR KCGI 300853Z AUTO 18007KT 10SM BKN024 OVC110 23/21 A2995 RMK AO2 SLP139 T02280206 55008 TSNO

More Conditions Fewer Conditions

10-Day Weather Forecast

Almanac

Astronomy

May. 30, 2015 Rise Set
Actual Time
Civil Twilight
Nautical Twilight
Astronomical Twilight
Moon
Length of Visible Light
Length of Day
Tomorrow will be .
, % of the Moon is Illuminated

Today's Extremes

State Highs State Lows

Community

WunderPhotos

Upload Photos

1,825,473 photos uploaded!

WunderBlogs® & News

Nearby

Air Quality

  Air Quality AQ Index Pollutant
Not available.

Snow Depth

Station Depth Elevation

Earthquake Activity

City Distance Mag. Time & Date
Minimum magnitude displayed is 2.5.

Coastal Water Temperatures

Place Temperature

Stations

Nearby Weather Stations

Station Location Temp. Windchill Dew Point Humidity Wind Precip. Elev Updated Type